Time;durP1;ratioP1;P1;durP2;ratioP2;P2;SDS_P1;SDS_P2;PMS_P1;PMS_P2;Temp;Humidity;BMP_temperature;BMP_pressure;BME280_temperature;BME280_humidity;BME280_pressure;Samples;Min_cycle;Max_cycle;Signal;HPM_P1;HPM_P2
2021/01/19 00:08:59;;;;;;;5.00;0.90;;;9.40;99.90;;;;;;20614986;28;20297;-77
2021/01/19 00:19:02;;;;;;;0.40;0.37;;;9.50;99.90;;;;;;20614441;28;20410;-78
2021/01/19 00:29:05;;;;;;;1.20;0.73;;;9.60;99.90;;;;;;20610419;28;20219;-80
2021/01/19 00:39:08;;;;;;;0.60;0.60;;;9.20;99.90;;;;;;20612849;28;20533;-78
2021/01/19 00:49:12;;;;;;;0.70;0.60;;;9.40;99.90;;;;;;20609560;28;20227;-75
2021/01/19 00:59:14;;;;;;;0.57;0.50;;;9.50;99.90;;;;;;20613387;28;20199;-75
2021/01/19 01:09:18;;;;;;;0.90;0.80;;;9.50;99.90;;;;;;20617918;28;20266;-77
2021/01/19 01:19:21;;;;;;;0.53;0.53;;;9.20;99.90;;;;;;20627764;28;20282;-77
2021/01/19 01:29:24;;;;;;;1.60;0.80;;;9.60;99.90;;;;;;20624166;28;20285;-78
2021/01/19 01:39:27;;;;;;;0.27;0.27;;;9.80;99.90;;;;;;20623211;28;20602;-74
2021/01/19 01:49:30;;;;;;;1.80;1.10;;;9.60;99.90;;;;;;20621620;28;20273;-79
2021/01/19 01:59:33;;;;;;;0.33;0.33;;;9.70;99.90;;;;;;20624461;28;20199;-76
2021/01/19 02:09:44;;;;;;;0.50;0.50;;;9.60;99.90;;;;;;20620901;28;20235;-74
2021/01/19 02:20:43;;;;;;;0.30;0.30;;;9.60;99.90;;;;;;20604806;28;20294;-76
2021/01/19 02:31:01;;;;;;;2.53;1.17;;;9.60;99.90;;;;;;20618904;28;20254;-78
2021/01/19 02:41:07;;;;;;;0.20;0.20;;;9.40;99.90;;;;;;20538756;28;20704;-77
2021/01/19 02:51:09;;;;;;;1.13;0.50;;;9.20;99.90;;;;;;20556507;28;20558;-76
2021/01/19 03:01:19;;;;;;;2.00;1.17;;;9.10;99.90;;;;;;20614779;23;20242;-67
2021/01/19 03:11:25;;;;;;;1.13;1.03;;;9.10;99.90;;;;;;20537312;28;20372;-67
2021/01/19 03:21:28;;;;;;;0.20;0.10;;;9.40;99.90;;;;;;20535182;28;20195;-69
2021/01/19 03:31:31;;;;;;;0.70;0.70;;;9.10;99.90;;;;;;20536564;28;20306;-68
2021/01/19 03:41:35;;;;;;;0.20;0.10;;;8.70;99.90;;;;;;20534962;28;20615;-68
2021/01/19 03:51:37;;;;;;;0.20;0.20;;;9.00;99.90;;;;;;20517780;28;20224;-68
2021/01/19 04:01:42;;;;;;;0.67;0.67;;;9.30;99.90;;;;;;20547127;23;20235;-77
2021/01/19 04:11:44;;;;;;;0.70;0.40;;;9.00;99.90;;;;;;20614190;28;20589;-76
2021/01/19 04:21:48;;;;;;;0.50;0.47;;;8.80;99.90;;;;;;20612749;28;20286;-80
2021/01/19 04:31:50;;;;;;;0.80;0.70;;;8.70;99.90;;;;;;20612055;28;21068;-78
2021/01/19 04:41:54;;;;;;;2.77;1.13;;;8.50;99.90;;;;;;20617826;28;20429;-83
2021/01/19 04:52:03;;;;;;;0.70;0.70;;;8.50;99.90;;;;;;20629729;28;21031;-80
2021/01/19 05:03:01;;;;;;;0.30;0.30;;;8.50;99.90;;;;;;20618475;23;20778;-67
2021/01/19 05:13:09;;;;;;;0.43;0.43;;;8.40;99.90;;;;;;20548320;28;20650;-70
2021/01/19 05:23:21;;;;;;;0.27;0.27;;;8.20;99.90;;;;;;20544865;28;20200;-66
2021/01/19 05:33:24;;;;;;;0.50;0.37;;;7.80;99.90;;;;;;20481059;28;20263;-67
2021/01/19 05:43:28;;;;;;;0.43;0.30;;;7.80;99.90;;;;;;20429713;29;20311;-67
2021/01/19 05:53:32;;;;;;;1.07;0.93;;;7.60;99.90;;;;;;20514879;28;20216;-67
2021/01/19 06:03:51;;;;;;;1.63;0.97;;;7.50;99.90;;;;;;20542987;28;20478;-68
2021/01/19 06:13:54;;;;;;;0.40;0.40;;;7.60;99.90;;;;;;20523350;28;20682;-69
2021/01/19 06:23:57;;;;;;;1.57;1.47;;;7.10;99.90;;;;;;20537830;28;20722;-69
2021/01/19 06:34:02;;;;;;;0.53;0.27;;;7.00;99.90;;;;;;20521786;28;20228;-69
2021/01/19 06:44:10;;;;;;;1.33;0.67;;;6.90;99.90;;;;;;20536794;28;20525;-69
2021/01/19 06:54:19;;;;;;;1.40;1.30;;;6.80;99.90;;;;;;20488938;28;20240;-71
2021/01/19 07:04:24;;;;;;;1.07;1.03;;;6.80;99.90;;;;;;20441330;28;20234;-67
2021/01/19 07:14:58;;;;;;;0.23;0.17;;;6.70;99.90;;;;;;20529253;28;20302;-67
2021/01/19 07:25:03;;;;;;;1.23;0.83;;;6.50;99.90;;;;;;20515597;28;20272;-67
2021/01/19 07:35:06;;;;;;;1.33;0.50;;;6.50;99.90;;;;;;20532779;28;20236;-70
2021/01/19 07:45:11;;;;;;;3.33;1.23;;;6.60;99.90;;;;;;20530938;28;21009;-68
2021/01/19 07:55:19;;;;;;;0.20;0.13;;;7.00;99.90;;;;;;20515534;28;20748;-67
2021/01/19 08:05:28;;;;;;;0.20;0.10;;;7.80;99.90;;;;;;20515670;28;20234;-69
2021/01/19 08:15:32;;;;;;;2.30;0.90;;;8.50;99.90;;;;;;20516090;28;20321;-65
2021/01/19 08:25:36;;;;;;;0.40;0.40;;;9.20;99.90;;;;;;20547718;28;20649;-67
2021/01/19 08:35:39;;;;;;;0.20;0.10;;;9.90;99.90;;;;;;20526894;28;20706;-67
2021/01/19 08:45:44;;;;;;;0.60;0.60;;;10.40;99.90;;;;;;20466400;29;20535;-68
2021/01/19 08:55:47;;;;;;;1.17;0.87;;;10.70;99.90;;;;;;20535578;28;20310;-67
2021/01/19 09:06:01;;;;;;;2.37;0.67;;;11.00;99.90;;;;;;20527932;28;20729;-67
2021/01/19 09:16:05;;;;;;;0.20;0.10;;;11.40;99.90;;;;;;20544299;28;20627;-68
2021/01/19 09:26:09;;;;;;;2.87;0.90;;;11.60;99.90;;;;;;20529582;28;20212;-67
2021/01/19 09:36:13;;;;;;;0.20;0.10;;;11.90;99.90;;;;;;20541704;28;20251;-69
2021/01/19 09:46:21;;;;;;;0.30;0.17;;;11.60;99.90;;;;;;20533215;28;20224;-65
2021/01/19 09:56:24;;;;;;;0.30;0.20;;;12.00;99.90;;;;;;20460237;28;20565;-69
2021/01/19 10:06:28;;;;;;;0.20;0.17;;;12.40;99.90;;;;;;20457016;29;20327;-68
2021/01/19 10:16:33;;;;;;;1.07;0.60;;;12.70;99.90;;;;;;20454862;28;20318;-68
2021/01/19 10:26:36;;;;;;;0.37;0.37;;;13.20;99.90;;;;;;20452956;29;20205;-66
2021/01/19 10:36:40;;;;;;;0.40;0.40;;;13.40;99.90;;;;;;20514618;28;20282;-66
2021/01/19 10:46:45;;;;;;;1.60;1.10;;;13.90;99.90;;;;;;20529388;28;20207;-68
2021/01/19 10:57:00;;;;;;;0.20;0.20;;;14.40;99.90;;;;;;20532059;28;20228;-66
2021/01/19 11:07:15;;;;;;;1.20;0.47;;;14.20;99.90;;;;;;21005960;27;20527;-71
2021/01/19 11:17:18;;;;;;;1.87;0.83;;;15.00;99.90;;;;;;21009164;28;20192;-72
2021/01/19 11:27:22;;;;;;;6.50;1.00;;;15.00;99.90;;;;;;21004899;28;20180;-73
2021/01/19 11:37:25;;;;;;;0.83;0.37;;;15.30;99.90;;;;;;21007281;28;20207;-70
2021/01/19 11:47:29;;;;;;;1.33;0.83;;;15.60;99.90;;;;;;20998743;28;20197;-72
2021/01/19 11:57:37;;;;;;;0.43;0.43;;;16.40;99.90;;;;;;20921640;28;20553;-70
2021/01/19 12:07:41;;;;;;;1.03;0.73;;;16.20;99.90;;;;;;20919607;28;20688;-71
2021/01/19 12:17:44;;;;;;;17.47;1.87;;;17.00;99.90;;;;;;20870405;28;20705;-71
2021/01/19 12:27:49;;;;;;;1.90;0.97;;;16.00;99.90;;;;;;20872070;28;20264;-73
2021/01/19 12:37:54;;;;;;;4.57;2.60;;;17.90;99.90;;;;;;20946566;28;20882;-73
2021/01/19 12:48:01;;;;;;;1.23;0.80;;;18.90;99.90;;;;;;20944957;28;20195;-79
2021/01/19 12:58:04;;;;;;;0.53;0.53;;;18.60;99.90;;;;;;20939208;28;20228;-71
2021/01/19 13:08:08;;;;;;;0.67;0.63;;;18.40;99.90;;;;;;20942389;28;20953;-72
2021/01/19 13:18:12;;;;;;;0.67;0.47;;;18.70;99.90;;;;;;20942298;28;20700;-69
2021/01/19 13:28:16;;;;;;;1.07;0.67;;;18.80;99.90;;;;;;20939558;28;20196;-71
2021/01/19 13:38:19;;;;;;;14.20;1.43;;;19.10;99.90;;;;;;20938247;28;20273;-73
2021/01/19 13:48:25;;;;;;;0.50;0.30;;;19.30;99.90;;;;;;20940035;28;20197;-72
2021/01/19 13:58:31;;;;;;;0.23;0.23;;;20.00;99.90;;;;;;20939704;28;20354;-74
2021/01/19 14:08:45;;;;;;;0.73;0.73;;;18.70;99.90;;;;;;20939534;28;20246;-72
2021/01/19 14:18:48;;;;;;;0.53;0.47;;;17.20;99.90;;;;;;20938672;28;20601;-69
2021/01/19 14:28:54;;;;;;;1.10;0.83;;;17.30;99.90;;;;;;20936381;28;20548;-70
2021/01/19 14:38:59;;;;;;;0.30;0.20;;;17.70;99.90;;;;;;20937089;28;20282;-71
2021/01/19 14:49:09;;;;;;;0.20;0.20;;;18.50;99.90;;;;;;20935727;28;20200;-74
2021/01/19 14:59:11;;;;;;;0.40;0.40;;;18.10;99.90;;;;;;20897131;22;20244;-70
2021/01/19 15:09:16;;;;;;;2.10;1.17;;;18.10;99.90;;;;;;20823827;28;20210;-65
2021/01/19 15:19:19;;;;;;;1.73;1.57;;;17.10;99.90;;;;;;20832013;28;20233;-68
2021/01/19 15:29:23;;;;;;;9.73;0.77;;;18.00;99.90;;;;;;20855814;28;20688;-65
2021/01/19 15:39:25;;;;;;;2.83;0.60;;;17.30;99.90;;;;;;20860055;28;20687;-66
2021/01/19 15:49:32;;;;;;;0.40;0.33;;;16.90;99.90;;;;;;20863331;28;20217;-68
2021/01/19 15:59:35;;;;;;;1.07;0.97;;;16.50;99.90;;;;;;20870852;28;20225;-67
2021/01/19 16:09:39;;;;;;;0.97;0.80;;;15.90;99.90;;;;;;20864933;28;20241;-69
2021/01/19 16:19:45;;;;;;;0.20;0.20;;;14.60;99.90;;;;;;20833517;28;20295;-72
2021/01/19 16:29:49;;;;;;;4.60;1.00;;;13.70;99.90;;;;;;20837053;28;20269;-69
2021/01/19 16:39:52;;;;;;;6.97;0.73;;;13.30;99.90;;;;;;20789258;28;20233;-69
2021/01/19 16:49:55;;;;;;;0.50;0.50;;;12.90;99.90;;;;;;20815615;28;20198;-70
2021/01/19 16:59:58;;;;;;;2.13;0.83;;;12.80;99.90;;;;;;20886235;28;20237;-70
2021/01/19 17:10:02;;;;;;;0.37;0.37;;;12.60;99.90;;;;;;20850621;28;20267;-70
2021/01/19 17:20:05;;;;;;;1.33;1.00;;;12.50;99.90;;;;;;20867614;28;20233;-70
2021/01/19 17:30:13;;;;;;;5.10;1.40;;;12.20;99.90;;;;;;20845098;28;20209;-69
2021/01/19 17:40:17;;;;;;;0.30;0.30;;;12.10;99.90;;;;;;20860679;28;20777;-70
2021/01/19 17:50:21;;;;;;;0.50;0.40;;;12.00;99.90;;;;;;20861603;28;20663;-69
2021/01/19 18:00:27;;;;;;;1.70;0.97;;;11.90;99.90;;;;;;20859672;28;20370;-70
2021/01/19 18:10:31;;;;;;;2.20;1.17;;;11.60;99.90;;;;;;20858561;28;20308;-70
2021/01/19 18:20:34;;;;;;;2.67;1.47;;;11.50;99.90;;;;;;20838852;28;20304;-68
2021/01/19 18:30:38;;;;;;;1.10;1.00;;;10.70;99.90;;;;;;20853964;28;20449;-68
2021/01/19 18:40:41;;;;;;;2.97;1.13;;;10.50;99.90;;;;;;20854883;28;20689;-68
2021/01/19 18:50:44;;;;;;;2.20;1.07;;;10.50;99.90;;;;;;22700246;23;20268;-77
2021/01/19 19:00:48;;;;;;;0.37;0.37;;;10.10;99.90;;;;;;20771121;28;20225;-80
2021/01/19 19:10:55;;;;;;;1.40;0.93;;;10.60;99.90;;;;;;20758516;28;20200;-78
2021/01/19 19:20:58;;;;;;;0.53;0.53;;;10.50;99.90;;;;;;20838106;28;20619;-78
2021/01/19 19:31:02;;;;;;;0.93;0.63;;;10.30;99.90;;;;;;20870296;28;20776;-78
2021/01/19 19:41:06;;;;;;;0.60;0.40;;;10.20;99.90;;;;;;20866586;28;20225;-78
2021/01/19 19:51:11;;;;;;;2.30;1.00;;;9.50;99.90;;;;;;20869150;28;20941;-80
2021/01/19 20:01:15;;;;;;;0.23;0.23;;;9.10;99.90;;;;;;20833176;28;20320;-79
2021/01/19 20:11:22;;;;;;;0.37;0.37;;;9.30;99.90;;;;;;20867519;28;20194;-81
2021/01/19 20:21:33;;;;;;;0.83;0.83;;;8.90;99.90;;;;;;20830478;28;20488;-78
2021/01/19 20:31:38;;;;;;;0.87;0.63;;;9.20;99.90;;;;;;20862860;28;20217;-79
2021/01/19 20:41:51;;;;;;;0.93;0.40;;;9.30;99.90;;;;;;22750244;22;20325;-80
2021/01/19 20:52:01;;;;;;;1.67;0.87;;;9.50;99.90;;;;;;20607027;28;20203;-77
2021/01/19 21:02:04;;;;;;;1.93;0.30;;;10.10;99.90;;;;;;20618160;28;20222;-77
2021/01/19 21:12:11;;;;;;;2.33;0.57;;;10.30;99.90;;;;;;20617023;28;20611;-78
2021/01/19 21:22:14;;;;;;;0.20;0.10;;;10.60;99.90;;;;;;20617686;28;20235;-79
2021/01/19 21:32:18;;;;;;;1.07;0.40;;;11.00;99.90;;;;;;20618897;28;20550;-79
2021/01/19 21:42:20;;;;;;;1.90;0.73;;;10.90;99.90;;;;;;20616606;28;20235;-82
2021/01/19 21:52:24;;;;;;;0.33;0.30;;;10.80;99.90;;;;;;20620096;28;20199;-76
2021/01/19 22:02:27;;;;;;;1.50;0.90;;;10.80;99.90;;;;;;20600109;28;20310;-79
2021/01/19 22:12:31;;;;;;;1.13;0.93;;;10.60;99.90;;;;;;20599411;28;20208;-79
2021/01/19 22:22:35;;;;;;;4.53;0.87;;;10.50;99.90;;;;;;20601075;28;20227;-80
2021/01/19 22:32:38;;;;;;;0.50;0.50;;;10.20;99.90;;;;;;20619807;28;20438;-80
2021/01/19 22:42:41;;;;;;;0.70;0.60;;;10.20;99.90;;;;;;20621625;28;20783;-80
2021/01/19 22:52:45;;;;;;;0.50;0.50;;;10.30;99.90;;;;;;20549818;28;20199;-78
2021/01/19 23:02:48;;;;;;;2.10;0.53;;;10.50;99.90;;;;;;20515704;28;20223;-78
2021/01/19 23:12:52;;;;;;;0.47;0.47;;;10.80;99.90;;;;;;20534535;28;20204;-75
2021/01/19 23:22:55;;;;;;;1.80;0.90;;;10.90;99.90;;;;;;20530842;28;20220;-79
2021/01/19 23:32:58;;;;;;;0.20;0.20;;;11.00;99.90;;;;;;20531785;28;20283;-80
2021/01/19 23:43:01;;;;;;;0.30;0.30;;;10.90;99.90;;;;;;20514096;28;20236;-79
2021/01/19 23:53:05;;;;;;;0.80;0.47;;;11.20;99.90;;;;;;20581272;28;20269;-78
